sensor_id;sensor_type;location;lat;lon;timestamp;P1;durP1;ratioP1;P2;durP2;ratioP2
64063;SDS011;50314;50.618;10.642;2022-09-27T00:01:53;0.82;;;0.82;;
64063;SDS011;50314;50.618;10.642;2022-09-27T00:04:18;1.00;;;0.90;;
64063;SDS011;50314;50.618;10.642;2022-09-27T00:06:44;0.93;;;0.80;;
64063;SDS011;50314;50.618;10.642;2022-09-27T00:09:09;0.85;;;0.85;;
64063;SDS011;50314;50.618;10.642;2022-09-27T00:11:36;0.93;;;0.90;;
64063;SDS011;50314;50.618;10.642;2022-09-27T00:14:04;0.65;;;0.65;;
64063;SDS011;50314;50.618;10.642;2022-09-27T00:16:32;0.90;;;0.80;;
64063;SDS011;50314;50.618;10.642;2022-09-27T00:18:59;0.90;;;0.90;;
64063;SDS011;50314;50.618;10.642;2022-09-27T00:21:26;0.60;;;0.60;;
64063;SDS011;50314;50.618;10.642;2022-09-27T00:23:54;0.75;;;0.65;;
64063;SDS011;50314;50.618;10.642;2022-09-27T00:26:19;1.48;;;0.88;;
64063;SDS011;50314;50.618;10.642;2022-09-27T00:28:45;0.63;;;0.63;;
64063;SDS011;50314;50.618;10.642;2022-09-27T00:31:13;0.60;;;0.60;;
64063;SDS011;50314;50.618;10.642;2022-09-27T00:33:44;1.25;;;0.70;;
64063;SDS011;50314;50.618;10.642;2022-09-27T00:36:10;0.95;;;0.60;;
64063;SDS011;50314;50.618;10.642;2022-09-27T00:38:36;0.70;;;0.70;;
64063;SDS011;50314;50.618;10.642;2022-09-27T00:41:01;1.00;;;0.80;;
64063;SDS011;50314;50.618;10.642;2022-09-27T00:43:33;0.60;;;0.60;;
64063;SDS011;50314;50.618;10.642;2022-09-27T00:46:08;0.60;;;0.50;;
64063;SDS011;50314;50.618;10.642;2022-09-27T00:48:36;0.85;;;0.80;;
64063;SDS011;50314;50.618;10.642;2022-09-27T00:51:02;1.00;;;0.50;;
64063;SDS011;50314;50.618;10.642;2022-09-27T00:53:30;0.60;;;0.60;;
64063;SDS011;50314;50.618;10.642;2022-09-27T00:56:02;0.63;;;0.63;;
64063;SDS011;50314;50.618;10.642;2022-09-27T00:58:38;0.88;;;0.77;;
64063;SDS011;50314;50.618;10.642;2022-09-27T01:01:08;0.85;;;0.52;;
64063;SDS011;50314;50.618;10.642;2022-09-27T01:03:43;0.70;;;0.70;;
64063;SDS011;50314;50.618;10.642;2022-09-27T01:06:16;0.55;;;0.55;;
64063;SDS011;50314;50.618;10.642;2022-09-27T01:08:44;0.68;;;0.68;;
64063;SDS011;50314;50.618;10.642;2022-09-27T01:16:46;0.70;;;0.70;;
64063;SDS011;50314;50.618;10.642;2022-09-27T01:22:40;0.88;;;0.80;;
64063;SDS011;50314;50.618;10.642;2022-09-27T01:28:02;0.50;;;0.50;;
64063;SDS011;50314;50.618;10.642;2022-09-27T01:30:41;0.82;;;0.73;;
64063;SDS011;50314;50.618;10.642;2022-09-27T01:33:39;0.57;;;0.57;;
64063;SDS011;50314;50.618;10.642;2022-09-27T01:36:18;0.80;;;0.80;;
64063;SDS011;50314;50.618;10.642;2022-09-27T01:39:04;1.60;;;0.65;;
64063;SDS011;50314;50.618;10.642;2022-09-27T01:47:03;0.60;;;0.60;;
64063;SDS011;50314;50.618;10.642;2022-09-27T01:49:38;0.60;;;0.60;;
64063;SDS011;50314;50.618;10.642;2022-09-27T01:52:09;0.60;;;0.60;;
64063;SDS011;50314;50.618;10.642;2022-09-27T01:54:41;0.52;;;0.47;;
64063;SDS011;50314;50.618;10.642;2022-09-27T01:57:10;0.52;;;0.52;;
64063;SDS011;50314;50.618;10.642;2022-09-27T01:59:51;0.50;;;0.50;;
64063;SDS011;50314;50.618;10.642;2022-09-27T02:02:21;0.60;;;0.50;;
64063;SDS011;50314;50.618;10.642;2022-09-27T02:04:49;0.60;;;0.60;;
64063;SDS011;50314;50.618;10.642;2022-09-27T02:07:26;0.65;;;0.65;;
64063;SDS011;50314;50.618;10.642;2022-09-27T02:09:58;0.60;;;0.60;;
64063;SDS011;50314;50.618;10.642;2022-09-27T02:12:36;0.52;;;0.52;;
64063;SDS011;50314;50.618;10.642;2022-09-27T02:15:11;0.60;;;0.60;;
64063;SDS011;50314;50.618;10.642;2022-09-27T02:17:43;0.77;;;0.70;;
64063;SDS011;50314;50.618;10.642;2022-09-27T02:20:15;0.60;;;0.60;;
64063;SDS011;50314;50.618;10.642;2022-09-27T02:22:55;0.50;;;0.43;;
64063;SDS011;50314;50.618;10.642;2022-09-27T02:25:31;0.52;;;0.52;;
64063;SDS011;50314;50.618;10.642;2022-09-27T02:30:55;0.65;;;0.60;;
64063;SDS011;50314;50.618;10.642;2022-09-27T02:33:28;0.90;;;0.55;;
64063;SDS011;50314;50.618;10.642;2022-09-27T02:35:58;0.65;;;0.65;;
64063;SDS011;50314;50.618;10.642;2022-09-27T02:38:23;0.70;;;0.70;;
64063;SDS011;50314;50.618;10.642;2022-09-27T02:40:49;0.60;;;0.60;;
64063;SDS011;50314;50.618;10.642;2022-09-27T02:43:15;0.52;;;0.52;;
64063;SDS011;50314;50.618;10.642;2022-09-27T02:48:29;0.60;;;0.60;;
64063;SDS011;50314;50.618;10.642;2022-09-27T02:56:52;1.35;;;0.57;;
64063;SDS011;50314;50.618;10.642;2022-09-27T02:59:39;0.85;;;0.50;;
64063;SDS011;50314;50.618;10.642;2022-09-27T03:04:54;1.10;;;0.70;;
64063;SDS011;50314;50.618;10.642;2022-09-27T03:07:23;0.50;;;0.50;;
64063;SDS011;50314;50.618;10.642;2022-09-27T03:09:51;0.55;;;0.55;;
64063;SDS011;50314;50.618;10.642;2022-09-27T03:12:18;0.70;;;0.70;;
64063;SDS011;50314;50.618;10.642;2022-09-27T03:14:49;0.52;;;0.52;;
64063;SDS011;50314;50.618;10.642;2022-09-27T03:17:24;0.75;;;0.68;;
64063;SDS011;50314;50.618;10.642;2022-09-27T03:19:50;0.60;;;0.60;;
64063;SDS011;50314;50.618;10.642;2022-09-27T03:22:16;0.60;;;0.60;;
64063;SDS011;50314;50.618;10.642;2022-09-27T03:24:41;0.40;;;0.40;;
64063;SDS011;50314;50.618;10.642;2022-09-27T03:27:07;0.40;;;0.40;;
64063;SDS011;50314;50.618;10.642;2022-09-27T03:29:34;0.57;;;0.57;;
64063;SDS011;50314;50.618;10.642;2022-09-27T03:31:59;0.50;;;0.50;;
64063;SDS011;50314;50.618;10.642;2022-09-27T03:34:25;0.65;;;0.65;;
64063;SDS011;50314;50.618;10.642;2022-09-27T03:36:50;0.60;;;0.60;;
64063;SDS011;50314;50.618;10.642;2022-09-27T03:39:15;0.52;;;0.40;;
64063;SDS011;50314;50.618;10.642;2022-09-27T03:41:41;0.40;;;0.40;;
64063;SDS011;50314;50.618;10.642;2022-09-27T03:44:06;0.60;;;0.60;;
64063;SDS011;50314;50.618;10.642;2022-09-27T03:46:32;0.57;;;0.57;;
64063;SDS011;50314;50.618;10.642;2022-09-27T03:48:58;0.47;;;0.47;;
64063;SDS011;50314;50.618;10.642;2022-09-27T03:51:23;1.10;;;0.60;;
64063;SDS011;50314;50.618;10.642;2022-09-27T03:53:48;0.40;;;0.40;;
64063;SDS011;50314;50.618;10.642;2022-09-27T03:56:14;0.70;;;0.70;;
64063;SDS011;50314;50.618;10.642;2022-09-27T03:58:40;0.43;;;0.43;;
64063;SDS011;50314;50.618;10.642;2022-09-27T04:01:05;0.50;;;0.50;;
64063;SDS011;50314;50.618;10.642;2022-09-27T04:03:30;0.68;;;0.68;;
64063;SDS011;50314;50.618;10.642;2022-09-27T04:05:56;1.52;;;0.40;;
64063;SDS011;50314;50.618;10.642;2022-09-27T04:08:21;0.50;;;0.50;;
64063;SDS011;50314;50.618;10.642;2022-09-27T04:10:48;0.40;;;0.40;;
64063;SDS011;50314;50.618;10.642;2022-09-27T04:13:13;0.50;;;0.50;;
64063;SDS011;50314;50.618;10.642;2022-09-27T04:15:38;0.80;;;0.80;;
64063;SDS011;50314;50.618;10.642;2022-09-27T04:18:04;0.55;;;0.55;;
64063;SDS011;50314;50.618;10.642;2022-09-27T04:20:31;1.75;;;0.55;;
64063;SDS011;50314;50.618;10.642;2022-09-27T04:22:57;0.52;;;0.52;;
64063;SDS011;50314;50.618;10.642;2022-09-27T04:25:22;0.50;;;0.50;;
64063;SDS011;50314;50.618;10.642;2022-09-27T04:27:47;0.60;;;0.60;;
64063;SDS011;50314;50.618;10.642;2022-09-27T04:30:16;0.50;;;0.50;;
64063;SDS011;50314;50.618;10.642;2022-09-27T04:32:41;0.50;;;0.50;;
64063;SDS011;50314;50.618;10.642;2022-09-27T04:35:08;0.40;;;0.40;;
64063;SDS011;50314;50.618;10.642;2022-09-27T04:37:53;0.93;;;0.47;;
64063;SDS011;50314;50.618;10.642;2022-09-27T04:40:18;0.50;;;0.50;;
64063;SDS011;50314;50.618;10.642;2022-09-27T04:42:46;0.50;;;0.50;;
64063;SDS011;50314;50.618;10.642;2022-09-27T04:45:11;0.65;;;0.65;;
64063;SDS011;50314;50.618;10.642;2022-09-27T04:47:41;0.63;;;0.57;;
64063;SDS011;50314;50.618;10.642;2022-09-27T04:50:10;0.63;;;0.63;;
64063;SDS011;50314;50.618;10.642;2022-09-27T04:52:36;0.60;;;0.60;;
64063;SDS011;50314;50.618;10.642;2022-09-27T04:55:02;0.50;;;0.50;;
64063;SDS011;50314;50.618;10.642;2022-09-27T04:57:27;0.40;;;0.40;;
64063;SDS011;50314;50.618;10.642;2022-09-27T04:59:53;0.50;;;0.50;;
64063;SDS011;50314;50.618;10.642;2022-09-27T05:02:18;0.60;;;0.60;;
64063;SDS011;50314;50.618;10.642;2022-09-27T05:04:44;0.40;;;0.40;;
64063;SDS011;50314;50.618;10.642;2022-09-27T05:07:09;0.38;;;0.38;;
64063;SDS011;50314;50.618;10.642;2022-09-27T05:09:35;0.50;;;0.50;;
64063;SDS011;50314;50.618;10.642;2022-09-27T05:12:00;0.47;;;0.47;;
64063;SDS011;50314;50.618;10.642;2022-09-27T05:14:25;0.40;;;0.40;;
64063;SDS011;50314;50.618;10.642;2022-09-27T05:16:52;0.50;;;0.50;;
64063;SDS011;50314;50.618;10.642;2022-09-27T05:19:18;0.57;;;0.57;;
64063;SDS011;50314;50.618;10.642;2022-09-27T05:21:43;0.82;;;0.60;;
64063;SDS011;50314;50.618;10.642;2022-09-27T05:24:08;0.55;;;0.55;;
64063;SDS011;50314;50.618;10.642;2022-09-27T05:26:34;0.63;;;0.63;;
64063;SDS011;50314;50.618;10.642;2022-09-27T05:28:59;0.75;;;0.57;;
64063;SDS011;50314;50.618;10.642;2022-09-27T05:31:25;0.60;;;0.60;;
64063;SDS011;50314;50.618;10.642;2022-09-27T05:33:50;0.60;;;0.60;;
64063;SDS011;50314;50.618;10.642;2022-09-27T05:36:16;0.90;;;0.68;;
64063;SDS011;50314;50.618;10.642;2022-09-27T05:38:42;0.70;;;0.60;;
64063;SDS011;50314;50.618;10.642;2022-09-27T05:41:08;0.60;;;0.60;;
64063;SDS011;50314;50.618;10.642;2022-09-27T05:43:34;0.50;;;0.50;;
64063;SDS011;50314;50.618;10.642;2022-09-27T05:46:00;0.60;;;0.50;;
64063;SDS011;50314;50.618;10.642;2022-09-27T05:48:26;0.50;;;0.50;;
64063;SDS011;50314;50.618;10.642;2022-09-27T05:50:52;0.70;;;0.60;;
64063;SDS011;50314;50.618;10.642;2022-09-27T05:53:18;0.75;;;0.70;;
64063;SDS011;50314;50.618;10.642;2022-09-27T05:55:43;0.57;;;0.57;;
64063;SDS011;50314;50.618;10.642;2022-09-27T05:58:09;0.98;;;0.70;;
64063;SDS011;50314;50.618;10.642;2022-09-27T06:00:35;0.50;;;0.50;;
64063;SDS011;50314;50.618;10.642;2022-09-27T06:03:03;0.65;;;0.65;;
64063;SDS011;50314;50.618;10.642;2022-09-27T06:05:33;1.00;;;0.40;;
64063;SDS011;50314;50.618;10.642;2022-09-27T06:08:05;0.55;;;0.55;;
64063;SDS011;50314;50.618;10.642;2022-09-27T06:10:32;0.60;;;0.50;;
64063;SDS011;50314;50.618;10.642;2022-09-27T06:12:59;0.70;;;0.60;;
64063;SDS011;50314;50.618;10.642;2022-09-27T06:15:29;0.98;;;0.65;;
64063;SDS011;50314;50.618;10.642;2022-09-27T06:17:56;0.65;;;0.60;;
64063;SDS011;50314;50.618;10.642;2022-09-27T06:20:22;0.85;;;0.57;;
64063;SDS011;50314;50.618;10.642;2022-09-27T06:22:48;0.80;;;0.60;;
64063;SDS011;50314;50.618;10.642;2022-09-27T06:25:13;0.80;;;0.80;;
64063;SDS011;50314;50.618;10.642;2022-09-27T06:27:39;0.55;;;0.55;;
64063;SDS011;50314;50.618;10.642;2022-09-27T06:30:04;1.50;;;0.50;;
64063;SDS011;50314;50.618;10.642;2022-09-27T06:32:30;0.60;;;0.60;;
64063;SDS011;50314;50.618;10.642;2022-09-27T06:34:56;0.60;;;0.60;;
64063;SDS011;50314;50.618;10.642;2022-09-27T06:37:25;0.70;;;0.70;;
64063;SDS011;50314;50.618;10.642;2022-09-27T06:39:51;0.70;;;0.50;;
64063;SDS011;50314;50.618;10.642;2022-09-27T06:42:20;0.50;;;0.50;;
64063;SDS011;50314;50.618;10.642;2022-09-27T06:44:45;0.50;;;0.50;;
64063;SDS011;50314;50.618;10.642;2022-09-27T06:47:14;0.57;;;0.57;;
64063;SDS011;50314;50.618;10.642;2022-09-27T06:49:42;0.80;;;0.70;;
64063;SDS011;50314;50.618;10.642;2022-09-27T06:52:07;0.50;;;0.50;;
64063;SDS011;50314;50.618;10.642;2022-09-27T06:54:33;0.50;;;0.50;;
64063;SDS011;50314;50.618;10.642;2022-09-27T06:56:58;0.50;;;0.50;;
64063;SDS011;50314;50.618;10.642;2022-09-27T06:59:24;2.08;;;0.63;;
64063;SDS011;50314;50.618;10.642;2022-09-27T07:02:08;1.92;;;0.55;;
64063;SDS011;50314;50.618;10.642;2022-09-27T07:04:34;0.60;;;0.60;;
64063;SDS011;50314;50.618;10.642;2022-09-27T07:06:59;0.50;;;0.50;;
64063;SDS011;50314;50.618;10.642;2022-09-27T07:09:25;0.45;;;0.45;;
64063;SDS011;50314;50.618;10.642;2022-09-27T07:11:50;0.50;;;0.40;;
64063;SDS011;50314;50.618;10.642;2022-09-27T07:14:17;0.40;;;0.40;;
64063;SDS011;50314;50.618;10.642;2022-09-27T07:16:43;0.70;;;0.70;;
64063;SDS011;50314;50.618;10.642;2022-09-27T07:19:09;0.40;;;0.40;;
64063;SDS011;50314;50.618;10.642;2022-09-27T07:21:35;0.60;;;0.60;;
64063;SDS011;50314;50.618;10.642;2022-09-27T07:24:01;0.70;;;0.70;;
64063;SDS011;50314;50.618;10.642;2022-09-27T07:26:26;0.85;;;0.50;;
64063;SDS011;50314;50.618;10.642;2022-09-27T07:28:52;0.77;;;0.77;;
64063;SDS011;50314;50.618;10.642;2022-09-27T07:31:17;0.60;;;0.52;;
64063;SDS011;50314;50.618;10.642;2022-09-27T07:33:43;0.50;;;0.50;;
64063;SDS011;50314;50.618;10.642;2022-09-27T07:36:08;0.43;;;0.43;;
64063;SDS011;50314;50.618;10.642;2022-09-27T07:38:35;1.08;;;0.68;;
64063;SDS011;50314;50.618;10.642;2022-09-27T07:41:04;0.60;;;0.60;;
64063;SDS011;50314;50.618;10.642;2022-09-27T07:43:34;0.90;;;0.70;;
64063;SDS011;50314;50.618;10.642;2022-09-27T07:45:59;0.98;;;0.60;;
64063;SDS011;50314;50.618;10.642;2022-09-27T07:48:25;0.65;;;0.65;;
64063;SDS011;50314;50.618;10.642;2022-09-27T07:50:51;0.73;;;0.73;;
64063;SDS011;50314;50.618;10.642;2022-09-27T07:53:17;0.63;;;0.63;;
64063;SDS011;50314;50.618;10.642;2022-09-27T07:55:43;1.42;;;0.60;;
64063;SDS011;50314;50.618;10.642;2022-09-27T07:58:09;0.60;;;0.50;;
64063;SDS011;50314;50.618;10.642;2022-09-27T08:00:36;0.65;;;0.60;;
64063;SDS011;50314;50.618;10.642;2022-09-27T08:03:05;1.08;;;0.93;;
64063;SDS011;50314;50.618;10.642;2022-09-27T08:05:32;0.73;;;0.50;;
64063;SDS011;50314;50.618;10.642;2022-09-27T08:08:00;0.70;;;0.70;;
64063;SDS011;50314;50.618;10.642;2022-09-27T08:10:25;0.77;;;0.63;;
64063;SDS011;50314;50.618;10.642;2022-09-27T08:12:54;0.70;;;0.70;;
64063;SDS011;50314;50.618;10.642;2022-09-27T08:15:20;1.08;;;0.88;;
64063;SDS011;50314;50.618;10.642;2022-09-27T08:17:45;0.63;;;0.60;;
64063;SDS011;50314;50.618;10.642;2022-09-27T08:20:11;0.52;;;0.50;;
64063;SDS011;50314;50.618;10.642;2022-09-27T08:22:39;0.85;;;0.50;;
64063;SDS011;50314;50.618;10.642;2022-09-27T08:25:06;0.60;;;0.60;;
64063;SDS011;50314;50.618;10.642;2022-09-27T08:27:31;0.70;;;0.70;;
64063;SDS011;50314;50.618;10.642;2022-09-27T08:29:57;0.75;;;0.65;;
64063;SDS011;50314;50.618;10.642;2022-09-27T08:32:23;0.50;;;0.50;;
64063;SDS011;50314;50.618;10.642;2022-09-27T08:34:48;0.90;;;0.60;;
64063;SDS011;50314;50.618;10.642;2022-09-27T08:37:14;0.55;;;0.55;;
64063;SDS011;50314;50.618;10.642;2022-09-27T08:39:39;0.68;;;0.60;;
64063;SDS011;50314;50.618;10.642;2022-09-27T08:42:07;0.85;;;0.60;;
64063;SDS011;50314;50.618;10.642;2022-09-27T08:50:25;0.73;;;0.68;;
64063;SDS011;50314;50.618;10.642;2022-09-27T08:52:57;0.60;;;0.60;;
64063;SDS011;50314;50.618;10.642;2022-09-27T08:58:36;1.23;;;0.88;;
64063;SDS011;50314;50.618;10.642;2022-09-27T09:01:11;1.08;;;0.70;;
64063;SDS011;50314;50.618;10.642;2022-09-27T09:03:43;0.95;;;0.68;;
64063;SDS011;50314;50.618;10.642;2022-09-27T09:06:23;2.22;;;0.80;;
64063;SDS011;50314;50.618;10.642;2022-09-27T09:15:19;0.95;;;0.75;;
64063;SDS011;50314;50.618;10.642;2022-09-27T09:26:17;1.00;;;0.90;;
64063;SDS011;50314;50.618;10.642;2022-09-27T09:34:08;0.82;;;0.70;;
64063;SDS011;50314;50.618;10.642;2022-09-27T09:39:12;1.20;;;0.85;;
64063;SDS011;50314;50.618;10.642;2022-09-27T09:47:24;0.73;;;0.70;;
64063;SDS011;50314;50.618;10.642;2022-09-27T09:49:57;0.80;;;0.80;;
64063;SDS011;50314;50.618;10.642;2022-09-27T09:52:33;1.15;;;1.02;;
64063;SDS011;50314;50.618;10.642;2022-09-27T09:55:38;1.00;;;0.95;;
64063;SDS011;50314;50.618;10.642;2022-09-27T09:58:07;0.73;;;0.73;;
64063;SDS011;50314;50.618;10.642;2022-09-27T10:00:45;0.80;;;0.80;;
64063;SDS011;50314;50.618;10.642;2022-09-27T10:03:12;1.48;;;0.93;;
64063;SDS011;50314;50.618;10.642;2022-09-27T10:05:38;0.90;;;0.80;;
64063;SDS011;50314;50.618;10.642;2022-09-27T10:08:10;0.85;;;0.82;;
64063;SDS011;50314;50.618;10.642;2022-09-27T10:10:40;0.88;;;0.80;;
64063;SDS011;50314;50.618;10.642;2022-09-27T10:13:07;1.60;;;0.93;;
64063;SDS011;50314;50.618;10.642;2022-09-27T10:15:39;0.60;;;0.60;;
64063;SDS011;50314;50.618;10.642;2022-09-27T10:18:05;1.27;;;0.60;;
64063;SDS011;50314;50.618;10.642;2022-09-27T10:20:41;0.80;;;0.70;;
64063;SDS011;50314;50.618;10.642;2022-09-27T10:23:15;1.27;;;0.60;;
64063;SDS011;50314;50.618;10.642;2022-09-27T10:25:51;0.63;;;0.63;;
64063;SDS011;50314;50.618;10.642;2022-09-27T10:31:05;0.55;;;0.55;;
64063;SDS011;50314;50.618;10.642;2022-09-27T10:33:32;0.70;;;0.70;;
64063;SDS011;50314;50.618;10.642;2022-09-27T10:36:01;1.20;;;0.90;;
64063;SDS011;50314;50.618;10.642;2022-09-27T10:38:33;0.80;;;0.80;;
64063;SDS011;50314;50.618;10.642;2022-09-27T10:44:46;0.95;;;0.63;;
64063;SDS011;50314;50.618;10.642;2022-09-27T10:46:55;1.80;;;0.90;;
64063;SDS011;50314;50.618;10.642;2022-09-27T10:49:45;0.80;;;0.73;;
64063;SDS011;50314;50.618;10.642;2022-09-27T10:54:40;0.57;;;0.50;;
64063;SDS011;50314;50.618;10.642;2022-09-27T10:59:39;0.95;;;0.80;;
64063;SDS011;50314;50.618;10.642;2022-09-27T11:05:01;1.10;;;0.80;;
64063;SDS011;50314;50.618;10.642;2022-09-27T11:07:30;0.70;;;0.70;;
64063;SDS011;50314;50.618;10.642;2022-09-27T11:09:56;1.80;;;0.80;;
64063;SDS011;50314;50.618;10.642;2022-09-27T11:12:29;0.88;;;0.70;;
64063;SDS011;50314;50.618;10.642;2022-09-27T11:14:57;0.70;;;0.70;;
64063;SDS011;50314;50.618;10.642;2022-09-27T11:17:29;0.70;;;0.70;;
64063;SDS011;50314;50.618;10.642;2022-09-27T11:20:04;0.80;;;0.80;;
64063;SDS011;50314;50.618;10.642;2022-09-27T11:25:28;0.70;;;0.70;;
64063;SDS011;50314;50.618;10.642;2022-09-27T11:30:33;0.80;;;0.80;;
64063;SDS011;50314;50.618;10.642;2022-09-27T11:33:25;1.42;;;0.60;;
64063;SDS011;50314;50.618;10.642;2022-09-27T11:36:04;2.47;;;0.80;;
64063;SDS011;50314;50.618;10.642;2022-09-27T11:38:49;0.82;;;0.82;;
64063;SDS011;50314;50.618;10.642;2022-09-27T11:53:17;0.93;;;0.93;;
64063;SDS011;50314;50.618;10.642;2022-09-27T12:04:22;0.73;;;0.73;;
64063;SDS011;50314;50.618;10.642;2022-09-27T12:07:08;0.85;;;0.70;;
64063;SDS011;50314;50.618;10.642;2022-09-27T12:09:49;0.90;;;0.70;;
64063;SDS011;50314;50.618;10.642;2022-09-27T12:12:19;1.40;;;0.80;;
64063;SDS011;50314;50.618;10.642;2022-09-27T12:14:57;1.08;;;0.75;;
64063;SDS011;50314;50.618;10.642;2022-09-27T12:17:27;0.82;;;0.80;;
64063;SDS011;50314;50.618;10.642;2022-09-27T12:19:57;1.05;;;0.88;;
64063;SDS011;50314;50.618;10.642;2022-09-27T12:22:32;0.68;;;0.68;;
64063;SDS011;50314;50.618;10.642;2022-09-27T12:25:02;0.63;;;0.60;;
64063;SDS011;50314;50.618;10.642;2022-09-27T12:27:38;1.13;;;0.82;;
64063;SDS011;50314;50.618;10.642;2022-09-27T12:30:11;0.65;;;0.65;;
64063;SDS011;50314;50.618;10.642;2022-09-27T12:35:20;0.80;;;0.80;;
64063;SDS011;50314;50.618;10.642;2022-09-27T12:40:39;1.02;;;0.90;;
64063;SDS011;50314;50.618;10.642;2022-09-27T12:43:20;1.38;;;0.77;;
64063;SDS011;50314;50.618;10.642;2022-09-27T12:51:14;1.23;;;1.02;;
64063;SDS011;50314;50.618;10.642;2022-09-27T12:56:26;1.25;;;0.95;;
64063;SDS011;50314;50.618;10.642;2022-09-27T13:01:59;1.17;;;0.70;;
64063;SDS011;50314;50.618;10.642;2022-09-27T13:13:19;1.25;;;0.70;;
64063;SDS011;50314;50.618;10.642;2022-09-27T13:15:48;0.88;;;0.88;;
64063;SDS011;50314;50.618;10.642;2022-09-27T13:21:11;1.10;;;0.90;;
64063;SDS011;50314;50.618;10.642;2022-09-27T13:27:48;1.70;;;1.02;;
64063;SDS011;50314;50.618;10.642;2022-09-27T13:29:52;1.85;;;0.75;;
64063;SDS011;50314;50.618;10.642;2022-09-27T13:32:36;1.08;;;0.75;;
64063;SDS011;50314;50.618;10.642;2022-09-27T13:37:52;0.93;;;0.82;;
64063;SDS011;50314;50.618;10.642;2022-09-27T13:40:26;1.20;;;0.70;;
64063;SDS011;50314;50.618;10.642;2022-09-27T13:45:54;0.70;;;0.70;;
64063;SDS011;50314;50.618;10.642;2022-09-27T14:00:39;1.23;;;0.73;;
64063;SDS011;50314;50.618;10.642;2022-09-27T14:05:38;1.48;;;0.73;;
64063;SDS011;50314;50.618;10.642;2022-09-27T14:08:06;1.02;;;0.80;;
64063;SDS011;50314;50.618;10.642;2022-09-27T14:10:59;1.08;;;0.90;;
64063;SDS011;50314;50.618;10.642;2022-09-27T14:13:34;0.98;;;0.60;;
64063;SDS011;50314;50.618;10.642;2022-09-27T14:16:03;1.00;;;0.90;;
64063;SDS011;50314;50.618;10.642;2022-09-27T14:18:29;1.15;;;1.05;;
64063;SDS011;50314;50.618;10.642;2022-09-27T14:21:13;0.98;;;0.98;;
64063;SDS011;50314;50.618;10.642;2022-09-27T14:26:43;1.42;;;0.80;;
64063;SDS011;50314;50.618;10.642;2022-09-27T14:29:19;0.60;;;0.60;;
64063;SDS011;50314;50.618;10.642;2022-09-27T14:31:46;1.05;;;0.88;;
64063;SDS011;50314;50.618;10.642;2022-09-27T14:34:27;0.82;;;0.82;;
64063;SDS011;50314;50.618;10.642;2022-09-27T14:36:52;1.00;;;0.82;;
64063;SDS011;50314;50.618;10.642;2022-09-27T14:39:37;1.02;;;0.93;;
64063;SDS011;50314;50.618;10.642;2022-09-27T14:42:04;1.00;;;0.77;;
64063;SDS011;50314;50.618;10.642;2022-09-27T14:44:42;1.10;;;1.00;;
64063;SDS011;50314;50.618;10.642;2022-09-27T14:47:14;1.55;;;1.00;;
64063;SDS011;50314;50.618;10.642;2022-09-27T14:49:49;1.58;;;1.10;;
64063;SDS011;50314;50.618;10.642;2022-09-27T14:52:37;1.77;;;1.17;;
64063;SDS011;50314;50.618;10.642;2022-09-27T14:57:31;1.73;;;1.17;;
64063;SDS011;50314;50.618;10.642;2022-09-27T15:02:47;5.15;;;1.40;;
64063;SDS011;50314;50.618;10.642;2022-09-27T15:05:16;1.23;;;1.10;;
64063;SDS011;50314;50.618;10.642;2022-09-27T15:07:44;2.05;;;1.23;;
64063;SDS011;50314;50.618;10.642;2022-09-27T15:12:50;1.00;;;0.90;;
64063;SDS011;50314;50.618;10.642;2022-09-27T15:15:21;1.45;;;1.00;;
64063;SDS011;50314;50.618;10.642;2022-09-27T15:17:49;2.10;;;1.10;;
64063;SDS011;50314;50.618;10.642;2022-09-27T15:22:51;1.42;;;1.10;;
64063;SDS011;50314;50.618;10.642;2022-09-27T15:27:56;1.20;;;1.05;;
64063;SDS011;50314;50.618;10.642;2022-09-27T15:30:25;1.00;;;0.90;;
64063;SDS011;50314;50.618;10.642;2022-09-27T15:32:53;2.33;;;1.23;;
64063;SDS011;50314;50.618;10.642;2022-09-27T15:37:50;1.63;;;1.20;;
64063;SDS011;50314;50.618;10.642;2022-09-27T15:42:55;1.80;;;1.40;;
64063;SDS011;50314;50.618;10.642;2022-09-27T15:48:13;1.58;;;1.15;;
64063;SDS011;50314;50.618;10.642;2022-09-27T15:50:41;1.25;;;1.10;;
64063;SDS011;50314;50.618;10.642;2022-09-27T15:53:08;1.48;;;1.10;;
64063;SDS011;50314;50.618;10.642;2022-09-27T15:55:35;1.70;;;1.33;;
64063;SDS011;50314;50.618;10.642;2022-09-27T15:58:05;2.03;;;1.40;;
64063;SDS011;50314;50.618;10.642;2022-09-27T16:00:49;1.35;;;1.20;;
64063;SDS011;50314;50.618;10.642;2022-09-27T16:03:15;2.03;;;1.27;;
64063;SDS011;50314;50.618;10.642;2022-09-27T16:05:43;1.67;;;1.38;;
64063;SDS011;50314;50.618;10.642;2022-09-27T16:08:09;1.63;;;1.17;;
64063;SDS011;50314;50.618;10.642;2022-09-27T16:13:02;1.60;;;1.50;;
64063;SDS011;50314;50.618;10.642;2022-09-27T16:15:28;2.08;;;1.52;;
64063;SDS011;50314;50.618;10.642;2022-09-27T16:17:54;2.22;;;1.80;;
64063;SDS011;50314;50.618;10.642;2022-09-27T16:20:22;2.45;;;1.42;;
64063;SDS011;50314;50.618;10.642;2022-09-27T16:22:50;2.10;;;1.48;;
64063;SDS011;50314;50.618;10.642;2022-09-27T16:25:18;3.00;;;1.25;;
64063;SDS011;50314;50.618;10.642;2022-09-27T16:27:45;1.10;;;1.00;;
64063;SDS011;50314;50.618;10.642;2022-09-27T16:30:11;2.05;;;1.38;;
64063;SDS011;50314;50.618;10.642;2022-09-27T16:32:44;13.30;;;1.70;;
64063;SDS011;50314;50.618;10.642;2022-09-27T16:35:11;1.25;;;1.02;;
64063;SDS011;50314;50.618;10.642;2022-09-27T16:40:04;0.95;;;0.95;;
64063;SDS011;50314;50.618;10.642;2022-09-27T16:42:31;1.05;;;1.00;;
64063;SDS011;50314;50.618;10.642;2022-09-27T16:44:56;1.88;;;1.20;;
64063;SDS011;50314;50.618;10.642;2022-09-27T16:47:21;1.67;;;0.90;;
64063;SDS011;50314;50.618;10.642;2022-09-27T16:49:47;0.90;;;0.77;;
64063;SDS011;50314;50.618;10.642;2022-09-27T16:52:31;0.80;;;0.80;;
64063;SDS011;50314;50.618;10.642;2022-09-27T16:54:58;1.40;;;1.02;;
64063;SDS011;50314;50.618;10.642;2022-09-27T16:57:24;0.75;;;0.75;;
64063;SDS011;50314;50.618;10.642;2022-09-27T16:59:52;1.55;;;1.45;;
64063;SDS011;50314;50.618;10.642;2022-09-27T17:02:20;2.67;;;1.13;;
64063;SDS011;50314;50.618;10.642;2022-09-27T17:04:45;1.10;;;1.00;;
64063;SDS011;50314;50.618;10.642;2022-09-27T17:07:11;0.98;;;0.90;;
64063;SDS011;50314;50.618;10.642;2022-09-27T17:09:37;1.02;;;0.90;;
64063;SDS011;50314;50.618;10.642;2022-09-27T17:14:29;1.52;;;1.00;;
64063;SDS011;50314;50.618;10.642;2022-09-27T17:16:56;0.98;;;0.88;;
64063;SDS011;50314;50.618;10.642;2022-09-27T17:19:21;1.00;;;0.90;;
64063;SDS011;50314;50.618;10.642;2022-09-27T17:21:47;1.33;;;0.80;;
64063;SDS011;50314;50.618;10.642;2022-09-27T17:24:13;0.80;;;0.80;;
64063;SDS011;50314;50.618;10.642;2022-09-27T17:26:38;1.83;;;1.15;;
64063;SDS011;50314;50.618;10.642;2022-09-27T17:29:04;0.90;;;0.90;;
64063;SDS011;50314;50.618;10.642;2022-09-27T17:31:29;0.80;;;0.80;;
64063;SDS011;50314;50.618;10.642;2022-09-27T17:33:58;1.08;;;0.90;;
64063;SDS011;50314;50.618;10.642;2022-09-27T17:36:25;0.70;;;0.70;;
64063;SDS011;50314;50.618;10.642;2022-09-27T17:38:51;1.15;;;0.98;;
64063;SDS011;50314;50.618;10.642;2022-09-27T17:41:18;0.70;;;0.70;;
64063;SDS011;50314;50.618;10.642;2022-09-27T17:43:47;0.98;;;0.98;;
64063;SDS011;50314;50.618;10.642;2022-09-27T17:46:17;0.80;;;0.80;;
64063;SDS011;50314;50.618;10.642;2022-09-27T17:48:44;1.00;;;0.90;;
64063;SDS011;50314;50.618;10.642;2022-09-27T17:51:28;1.17;;;0.98;;
64063;SDS011;50314;50.618;10.642;2022-09-27T17:53:55;1.02;;;0.93;;
64063;SDS011;50314;50.618;10.642;2022-09-27T17:56:21;1.20;;;1.10;;
64063;SDS011;50314;50.618;10.642;2022-09-27T17:58:51;1.13;;;1.00;;